Terminal Aerodrome Forecast
Issued by NWS Sterling, VA

Current Version | Previous Version | Graphics & Text | Print | Product List | Glossary On
Versions: 1 2 3 4 5 6 7 8 9 10 11 12 13 14 15 16 17 18
502
FTUS41 KLWX 230529
TAFDCA
TAF
KDCA 230529Z 2306/2406 35005KT P6SM BKN120 BKN200
     FM231700 05005KT P6SM OVC150
     FM240300 06004KT 6SM -RA BR OVC050=

USA.gov is the U.S. government's official web portal to all federal, state and local government web resources and services.